Detall de PIREP

Printer-friendly versionPDF version

[2014/03/01 09:19:00]
Flight IATA:CT1004
Pilot Number:012
Company ICAO:CAT
Aircraft Type:C750/F
PAX:4
Departing Airport: LEBL
Destination Airport: EGLC
Alternate Airport:EGLL
Online: VATSIM
Route:MOPAS UN863 TIRAV UN490 TERPO UP87 DOMUT
Flight Level:F510
No Slew and time accel
No pause
Crash detect
Detect pilot in Cockpit between each 30 and 45 minutes
09:19 Zero fuel Weight: 22922 Lbs, Fuel Weight: 5917 Lbs
09:19 VATSIM:LEBL 010900Z 33014KT 290V350 9999 FEW025 08/01 Q1007 NOSIG
09:19 VATSIM:EGLC 010850Z 31005KT 280V350 6000 SCT007 SCT008 05/02 Q1003
09:19 VOICE CATALONIAN / MWC 2014 BARCELONA CHARTER
09:24 Parking Brakes off
09:30 Take-off
09:30 Take off Weight: 28690 Lbs
09:30 Wind: 319º @ 014 Knots Heading: 248º
09:30 POS N41º 17´ 13´´ E002º 05´ 19´´
09:30 Gear Up: 158 Knots
09:30 Flaps:3 at 158 Knots
09:30 Flaps:2 at 182 Knots
09:30 Flaps:0 at 191 Knots
09:45 Wind:320º@040 Knots Heading: 331º Ground Speed: 443 Knots Altitude 46292 ft
09:48 TOC
09:48 Fuel Weight: 5108 Lb
10:00 Wind:318º@036 Knots Heading: 333º Ground Speed: 453 Knots Altitude 50846 ft
10:15 Wind:320º@033 Knots Heading: 321º Ground Speed: 458 Knots Altitude 50784 ft
10:30 Wind:320º@034 Knots Heading: 353º Ground Speed: 462 Knots Altitude 50754 ft
10:45 Wind:314º@036 Knots Heading: 009º Ground Speed: 471 Knots Altitude 50698 ft
10:50 TOD
10:50 Fuel Weight: 4250 Lb
11:00 Wind:309º@042 Knots Heading: 072º Ground Speed: 452 Knots Altitude 28307 ft
11:15 Wind:243º@005 Knots Heading: 329º Ground Speed: 240 Knots Altitude 4937 ft
11:18 Flaps:2 at 201 Knots
11:19 Flaps:3 at 188 Knots
11:20 Flaps:4 at 182 Knots
11:21 Gear Down: 169 Knots
11:22 Flaps:5 at 130 Knots
11:24 TouchDown:Rate -329 ft/min Speed: 119 Knots
11:24 VATSIM:EGLC 011050Z 30007KT 6000 SCT007 BKN028 05/03 Q1003
11:24 Land
11:24 Wind:301º@007 Knots
11:24 Heading: 269º
11:24 Flight Duration: 01:54
11:24 Landing Weight: 26837 Lbs
11:24 POS N51º 30´ 19´´ E000º 02´ 59´´
11:28 Parking brakes on
11:28 Block to Block Duration: 02:04
11:28 Final Fuel: 3882 Lbls
11:28 Spent Fuel: 2034 Lbls
11:28 Flight Length: 774 NM
11:28 TOD Land Length: 186 NM

Exportar CSV

Powered by Drupal - Modified by Danger4k